Time;durP1;ratioP1;P1;durP2;ratioP2;P2;SDS_P1;SDS_P2;PMS_P1;PMS_P2;Temp;Humidity;BMP_temperature;BMP_pressure;BME280_temperature;BME280_humidity;BME280_pressure;Samples;Min_cycle;Max_cycle;Signal;HPM_P1;HPM_P2
2023/12/17 00:00:26;;;;;;;8.03;2.10;;;;;;;18.11;55.09;103813.06;5046021;28;20545;-78
2023/12/17 00:02:52;;;;;;;3.13;1.80;;;;;;;18.48;54.43;103813.25;5052230;28;20043;-77
2023/12/17 00:05:17;;;;;;;3.40;1.57;;;;;;;18.00;55.27;103809.47;5049199;28;20051;-77
2023/12/17 00:07:42;;;;;;;6.87;1.50;;;;;;;17.85;55.73;103812.00;5048532;28;20025;-77
2023/12/17 00:10:08;;;;;;;4.30;2.43;;;;;;;18.42;54.08;103805.28;5030734;28;20060;-78
2023/12/17 00:12:34;;;;;;;3.53;1.90;;;;;;;17.99;55.43;103797.13;5042435;28;20037;-78
2023/12/17 00:15:02;;;;;;;5.37;1.77;;;;;;;17.64;55.87;103798.63;5069865;28;20399;-78
2023/12/17 00:17:28;;;;;;;4.80;1.90;;;;;;;18.54;53.92;103785.03;5057169;28;20356;-78
2023/12/17 00:19:53;;;;;;;5.07;1.50;;;;;;;18.04;54.43;103784.81;5055045;28;20029;-78
2023/12/17 00:22:21;;;;;;;4.43;1.70;;;;;;;18.19;54.30;103788.41;5057126;28;20029;-80
2023/12/17 00:24:46;;;;;;;6.63;1.53;;;;;;;17.97;54.41;103783.00;5073141;28;20114;-79
2023/12/17 00:27:14;;;;;;;4.37;1.53;;;;;;;17.72;56.10;103780.19;5072939;28;20107;-78
2023/12/17 00:29:40;;;;;;;3.03;1.60;;;;;;;18.19;54.40;103783.09;5054351;28;20430;-79
2023/12/17 00:32:06;;;;;;;2.70;1.60;;;;;;;17.26;56.43;103787.75;5049314;28;20119;-78
2023/12/17 00:34:31;;;;;;;3.10;1.63;;;;;;;18.34;53.72;103798.16;5074464;28;20024;-79
2023/12/17 00:36:57;;;;;;;6.10;2.17;;;;;;;17.69;55.38;103803.94;5073677;28;20146;-78
2023/12/17 00:39:22;;;;;;;4.97;1.77;;;;;;;17.74;55.14;103804.88;5053548;28;20106;-78
2023/12/17 00:41:47;;;;;;;2.67;1.60;;;;;;;17.80;56.48;103796.09;5050069;28;20041;-79
2023/12/17 00:44:13;;;;;;;7.50;1.63;;;;;;;18.05;55.06;103789.22;5067844;28;20044;-79
2023/12/17 00:46:38;;;;;;;6.17;1.87;;;;;;;17.77;55.31;103783.72;5069553;28;20472;-79
2023/12/17 00:49:03;;;;;;;6.67;3.60;;;;;;;18.16;54.85;103780.44;5055268;28;20039;-78
2023/12/17 00:51:29;;;;;;;4.40;1.73;;;;;;;17.59;55.68;103781.84;5053095;28;20108;-78
2023/12/17 00:53:54;;;;;;;1.90;1.50;;;;;;;18.07;53.47;103784.81;5065588;28;20029;-79
2023/12/17 00:56:20;;;;;;;5.00;1.97;;;;;;;17.17;56.19;103771.81;5056999;28;20040;-78
2023/12/17 00:58:45;;;;;;;6.53;2.07;;;;;;;18.21;53.90;103778.72;5077083;28;20036;-79
2023/12/17 01:01:10;;;;;;;6.10;1.83;;;;;;;17.41;55.08;103782.59;5052814;28;20028;-78
2023/12/17 01:03:36;;;;;;;3.03;1.70;;;;;;;17.67;54.60;103779.25;5062388;28;20115;-78
2023/12/17 01:06:01;;;;;;;4.43;1.70;;;;;;;17.76;55.54;103773.13;5072540;28;20036;-78
2023/12/17 01:08:26;;;;;;;3.17;1.57;;;;;;;17.96;54.04;103765.34;5061159;28;20537;-79
2023/12/17 01:10:52;;;;;;;4.23;1.70;;;;;;;17.36;55.33;103768.44;5069303;28;20064;-78
2023/12/17 01:13:17;;;;;;;3.40;2.23;;;;;;;17.42;55.71;103768.50;5059423;28;20051;-78
2023/12/17 01:15:42;;;;;;;3.57;1.67;;;;;;;17.85;54.35;103764.38;5072117;28;20154;-78
2023/12/17 01:18:08;;;;;;;7.93;3.03;;;;;;;17.26;56.30;103761.31;5068283;28;20029;-78
2023/12/17 01:20:33;;;;;;;5.60;1.60;;;;;;;17.49;55.15;103763.25;5052092;28;20477;-79
2023/12/17 01:23:00;;;;;;;4.63;1.73;;;;;;;18.57;52.96;103753.22;5054696;28;20036;-79
2023/12/17 01:25:25;;;;;;;4.57;1.63;;;;;;;18.74;51.89;103750.59;5072651;28;20109;-78
2023/12/17 01:27:50;;;;;;;5.20;1.30;;;;;;;18.02;53.79;103754.78;5056952;28;20060;-79
2023/12/17 01:30:16;;;;;;;2.53;1.70;;;;;;;18.31;52.07;103751.38;5058691;28;20064;-79
2023/12/17 01:32:41;;;;;;;3.40;1.40;;;;;;;17.50;54.68;103749.16;5052163;28;20499;-78
2023/12/17 01:35:08;;;;;;;5.67;1.87;;;;;;;17.67;54.02;103747.53;5055657;28;20063;-78
2023/12/17 01:37:33;;;;;;;7.37;1.27;;;;;;;17.98;53.92;103731.84;5053075;28;20170;-79
2023/12/17 01:40:02;;;;;;;3.37;1.40;;;;;;;18.23;51.72;103722.25;5069318;28;20479;-79
2023/12/17 01:42:28;;;;;;;1.40;1.00;;;;;;;17.61;53.55;103734.25;5031543;28;20151;-79
2023/12/17 01:44:53;;;;;;;9.03;1.70;;;;;;;17.71;53.47;103727.25;5068060;28;20107;-79
2023/12/17 01:47:19;;;;;;;4.50;1.40;;;;;;;17.64;53.25;103731.63;5054179;28;20064;-78
2023/12/17 01:49:44;;;;;;;3.10;1.40;;;;;;;18.18;52.25;103723.13;5053817;28;20051;-78
2023/12/17 01:52:10;;;;;;;4.73;1.60;;;;;;;17.89;52.79;103737.06;5047969;28;20405;-79
2023/12/17 01:54:36;;;;;;;5.13;1.20;;;;;;;18.10;52.38;103737.19;5055487;28;20052;-79
2023/12/17 01:57:02;;;;;;;3.60;1.03;;;;;;;18.55;51.36;103733.81;5051621;28;20033;-79
2023/12/17 01:59:28;;;;;;;3.88;1.45;;;;;;;18.30;52.20;103741.69;5064571;28;20525;-79
2023/12/17 02:01:53;;;;;;;4.00;1.10;;;;;;;18.05;53.32;103759.22;5056223;28;20029;-79
2023/12/17 02:04:22;;;;;;;3.10;1.00;;;;;;;18.66;51.72;103761.22;5058782;28;20403;-79
2023/12/17 02:06:47;;;;;;;1.27;1.00;;;;;;;18.50;50.91;103759.41;5047922;28;20055;-79
2023/12/17 02:09:13;;;;;;;4.67;1.40;;;;;;;18.62;51.04;103767.38;5048381;28;20040;-79
2023/12/17 02:11:38;;;;;;;2.17;0.90;;;;;;;18.24;51.92;103776.06;5072308;28;20028;-79
2023/12/17 02:14:03;;;;;;;4.73;1.20;;;;;;;18.03;52.42;103777.72;5064930;28;20455;-78
2023/12/17 02:16:29;;;;;;;4.03;1.00;;;;;;;18.09;52.28;103788.38;5056041;28;20032;-79
2023/12/17 02:18:57;;;;;;;1.30;1.00;;;;;;;18.01;51.90;103784.78;5050789;28;20021;-79
2023/12/17 02:21:23;;;;;;;4.83;1.40;;;;;;;18.92;50.67;103774.53;5051371;28;20060;-79
2023/12/17 02:23:48;;;;;;;2.43;1.00;;;;;;;18.61;51.42;103777.06;5052583;28;20116;-79
2023/12/17 02:26:14;;;;;;;2.60;0.90;;;;;;;18.45;51.42;103781.47;5051328;28;20480;-79
2023/12/17 02:28:40;;;;;;;0.80;0.80;;;;;;;18.06;53.02;103785.69;5069963;28;20421;-79
2023/12/17 02:31:05;;;;;;;0.70;0.70;;;;;;;19.32;49.51;103771.03;5068750;28;20132;-78
2023/12/17 02:33:31;;;;;;;2.07;0.77;;;;;;;19.25;49.34;103774.56;5048977;28;20370;-79
2023/12/17 02:35:56;;;;;;;3.40;1.23;;;;;;;18.50;52.29;103768.22;5072580;28;20086;-79
2023/12/17 02:38:21;;;;;;;5.88;1.38;;;;;;;18.24;52.27;103776.06;5070336;28;20130;-79
2023/12/17 02:40:47;;;;;;;1.90;0.70;;;;;;;18.81;50.84;103769.19;5052307;28;20117;-79
2023/12/17 02:43:12;;;;;;;12.13;1.73;;;;;;;18.37;52.01;103771.69;5066797;28;20116;-79
2023/12/17 02:45:37;;;;;;;5.17;1.70;;;;;;;18.50;52.42;103772.66;5076316;28;20080;-79
2023/12/17 02:48:03;;;;;;;3.43;1.47;;;;;;;19.14;50.54;103770.13;5051944;28;20036;-79
2023/12/17 02:50:28;;;;;;;3.80;1.60;;;;;;;19.40;50.09;103763.03;5067749;28;20043;-79
2023/12/17 02:52:54;;;;;;;5.23;1.13;;;;;;;18.94;50.53;103763.94;5071146;28;20032;-78
2023/12/17 02:55:19;;;;;;;7.00;1.13;;;;;;;18.98;50.13;103761.28;5051212;28;20541;-79
2023/12/17 02:57:44;;;;;;;5.67;1.27;;;;;;;18.61;51.42;103769.13;5047437;28;20104;-79
2023/12/17 03:00:10;;;;;;;6.70;2.30;;;;;;;18.25;52.56;103775.19;5047684;28;20534;-79
2023/12/17 03:02:36;;;;;;;5.43;2.27;;;;;;;18.48;52.34;103754.97;5050778;28;20562;-79
2023/12/17 03:05:01;;;;;;;5.00;1.83;;;;;;;18.25;52.72;103762.84;5056309;28;20059;-79
2023/12/17 03:07:28;;;;;;;5.07;1.80;;;;;;;18.26;53.25;103764.63;5046390;28;20397;-79
2023/12/17 03:09:54;;;;;;;5.97;1.83;;;;;;;18.35;52.43;103763.75;5049981;28;20029;-79
2023/12/17 03:12:20;;;;;;;5.00;1.50;;;;;;;18.59;52.30;103748.84;5070059;28;20629;-79
2023/12/17 03:14:46;;;;;;;10.17;1.60;;;;;;;18.36;53.08;103741.69;5064475;28;20075;-79
2023/12/17 03:17:11;;;;;;;6.57;1.60;;;;;;;18.19;53.18;103752.25;5050901;28;20082;-78
2023/12/17 03:19:37;;;;;;;9.23;2.23;;;;;;;17.98;52.83;103747.72;5052237;28;20560;-79
2023/12/17 03:22:02;;;;;;;3.83;1.80;;;;;;;18.28;52.93;103740.78;5070634;28;20043;-79
2023/12/17 03:24:28;;;;;;;4.10;1.40;;;;;;;18.10;53.07;103746.91;5060491;28;20037;-79
2023/12/17 03:26:53;;;;;;;6.97;1.53;;;;;;;18.62;51.99;103740.91;5054419;28;20037;-79
2023/12/17 03:29:19;;;;;;;9.10;2.73;;;;;;;18.04;53.59;103747.75;5045516;28;20568;-79
2023/12/17 03:31:44;;;;;;;6.93;2.90;;;;;;;17.62;55.14;103738.66;5063825;28;20123;-79
2023/12/17 03:34:10;;;;;;;6.20;1.67;;;;;;;17.48;55.82;103730.63;5049780;28;20545;-79
2023/12/17 03:36:36;;;;;;;3.53;1.63;;;;;;;18.01;54.60;103731.88;5055148;28;20036;-79
2023/12/17 03:39:03;;;;;;;11.47;2.10;;;;;;;17.84;54.00;103739.66;5051143;28;20068;-79
2023/12/17 03:41:28;;;;;;;5.30;2.10;;;;;;;18.33;53.47;103738.13;5066907;28;20500;-79
2023/12/17 03:43:57;;;;;;;4.10;1.50;;;;;;;18.24;53.47;103744.31;5068241;28;20056;-79
2023/12/17 03:46:24;;;;;;;6.03;2.43;;;;;;;18.33;52.85;103739.03;5054698;28;20095;-79
2023/12/17 03:48:50;;;;;;;4.57;2.00;;;;;;;18.07;53.86;103737.16;5050402;28;20037;-79
2023/12/17 03:51:16;;;;;;;5.57;2.37;;;;;;;17.74;54.71;103732.56;5057953;28;20033;-79
2023/12/17 03:53:41;;;;;;;9.23;2.33;;;;;;;17.92;54.46;103723.88;5036867;28;20392;-79
2023/12/17 03:56:12;;;;;;;7.03;2.67;;;;;;;17.83;55.52;103719.38;5047851;28;20504;-79
2023/12/17 03:58:39;;;;;;;6.67;2.40;;;;;;;17.72;55.13;103718.44;5046950;28;20032;-78
2023/12/17 04:01:06;;;;;;;5.77;2.17;;;;;;;18.06;54.85;103701.00;5064733;28;20032;-79
2023/12/17 04:03:31;;;;;;;4.70;2.97;;;;;;;18.00;54.40;103695.69;5076273;28;20560;-78
2023/12/17 04:05:58;;;;;;;8.30;2.60;;;;;;;18.37;53.88;103693.16;5064049;28;20062;-79
2023/12/17 04:08:24;;;;;;;8.27;3.30;;;;;;;18.29;53.39;103684.31;5065505;28;20040;-79
2023/12/17 04:10:50;;;;;;;5.50;2.70;;;;;;;17.58;55.48;103691.91;5060679;28;20032;-79
2023/12/17 04:13:15;;;;;;;8.03;1.83;;;;;;;17.51;56.34;103698.03;5076439;28;20058;-79
2023/12/17 04:15:40;;;;;;;5.43;2.30;;;;;;;17.88;55.40;103708.84;5076240;28;20051;-79
2023/12/17 04:18:06;;;;;;;9.27;2.57;;;;;;;17.64;55.64;103710.47;5055935;28;20025;-78
2023/12/17 04:20:31;;;;;;;9.17;2.73;;;;;;;18.68;52.68;103693.19;5056756;28;20031;-79
2023/12/17 04:22:57;;;;;;;6.50;2.17;;;;;;;18.22;53.26;103690.47;5066200;28;20041;-79
2023/12/17 04:25:22;;;;;;;11.13;3.53;;;;;;;18.00;54.25;103708.91;5072197;28;20152;-79
2023/12/17 04:27:47;;;;;;;9.13;2.33;;;;;;;17.15;57.41;103711.00;5074662;28;20090;-79
2023/12/17 04:30:13;;;;;;;6.73;2.50;;;;;;;17.85;54.44;103703.53;5075194;28;20037;-79
2023/12/17 04:32:38;;;;;;;10.77;1.73;;;;;;;17.02;56.61;103704.75;5056953;28;20033;-78
2023/12/17 04:35:04;;;;;;;10.53;2.23;;;;;;;17.16;56.79;103694.28;5072372;28;20196;-79
2023/12/17 04:37:30;;;;;;;9.23;2.20;;;;;;;17.82;53.91;103693.81;5068272;28;20505;-79
2023/12/17 04:39:55;;;;;;;10.93;2.10;;;;;;;17.18;56.37;103695.16;5056833;28;20055;-79
2023/12/17 04:42:21;;;;;;;4.60;1.53;;;;;;;17.16;56.68;103698.66;5067155;28;20037;-79
2023/12/17 04:44:46;;;;;;;8.40;2.00;;;;;;;17.19;56.08;103690.78;5065470;28;20048;-79
2023/12/17 04:47:12;;;;;;;7.80;1.53;;;;;;;16.50;58.76;103686.63;5055662;28;20067;-79
2023/12/17 04:49:37;;;;;;;7.77;2.10;;;;;;;16.70;58.02;103685.91;5056390;28;20029;-79
2023/12/17 04:52:03;;;;;;;13.13;2.70;;;;;;;17.27;56.65;103694.38;5064151;28;20036;-79
2023/12/17 04:54:28;;;;;;;6.00;2.40;;;;;;;17.59;55.26;103691.03;5057201;28;20528;-78
2023/12/17 04:56:55;;;;;;;5.90;1.97;;;;;;;17.13;57.59;103692.50;5061129;28;20032;-79
2023/12/17 04:59:21;;;;;;;13.27;3.40;;;;;;;17.62;55.32;103694.56;5055701;28;20331;-79
2023/12/17 05:01:46;;;;;;;8.93;3.23;;;;;;;17.71;55.96;103685.81;5061711;28;20040;-79
2023/12/17 05:04:12;;;;;;;10.07;3.13;;;;;;;16.84;58.12;103688.69;5055203;28;20028;-79
2023/12/17 05:06:37;;;;;;;15.80;3.87;;;;;;;17.39;57.49;103686.53;5055394;28;20029;-79
2023/12/17 05:09:02;;;;;;;15.10;4.10;;;;;;;16.51;59.53;103690.13;5072410;28;20033;-78
2023/12/17 05:11:28;;;;;;;8.43;3.30;;;;;;;17.44;56.89;103694.47;5071150;28;20508;-79
2023/12/17 05:13:53;;;;;;;15.57;3.93;;;;;;;17.19;57.76;103690.78;5053189;28;20037;-79
2023/12/17 05:16:18;;;;;;;14.63;4.17;;;;;;;17.45;57.78;103686.53;5052996;28;20127;-78
2023/12/17 05:18:44;;;;;;;19.67;5.00;;;;;;;16.16;60.45;103682.72;5068367;28;20048;-79
2023/12/17 05:21:09;;;;;;;15.17;5.27;;;;;;;16.78;60.76;103674.53;5052498;28;20112;-79
2023/12/17 05:23:35;;;;;;;13.83;4.80;;;;;;;16.44;61.59;103663.69;5071747;28;20037;-79
2023/12/17 05:26:00;;;;;;;12.13;4.73;;;;;;;16.70;60.42;103665.66;5067742;28;20025;-80
2023/12/17 05:28:27;;;;;;;8.93;4.43;;;;;;;16.86;59.46;103671.13;5057875;28;20040;-79
2023/12/17 05:30:53;;;;;;;9.80;4.33;;;;;;;16.18;63.08;103670.41;5032800;28;20037;-79
2023/12/17 05:33:19;;;;;;;13.70;4.60;;;;;;;16.72;61.18;103674.50;5062269;28;20025;-79
2023/12/17 05:35:45;;;;;;;18.07;5.47;;;;;;;16.63;61.95;103675.28;5072407;28;20086;-78
2023/12/17 05:38:10;;;;;;;8.60;4.87;;;;;;;17.16;58.43;103674.88;5066680;28;20028;-79
2023/12/17 05:40:36;;;;;;;17.97;4.03;;;;;;;15.86;62.30;103684.97;5053585;28;20068;-78
2023/12/17 05:43:02;;;;;;;17.80;4.07;;;;;;;15.98;62.53;103672.81;5064139;28;20107;-78
2023/12/17 05:45:28;;;;;;;14.60;3.90;;;;;;;15.96;61.35;103675.44;5072290;28;20056;-79
2023/12/17 05:47:53;;;;;;;10.93;4.37;;;;;;;16.14;63.61;103676.53;5053322;28;20090;-79
2023/12/17 05:50:18;;;;;;;10.83;5.10;;;;;;;16.47;61.35;103683.03;5052085;28;20033;-79
2023/12/17 05:52:44;;;;;;;14.57;4.33;;;;;;;16.38;61.02;103678.56;5062369;28;20047;-79
2023/12/17 05:55:09;;;;;;;16.40;5.20;;;;;;;16.31;61.01;103688.16;5071312;28;20055;-79
2023/12/17 05:57:35;;;;;;;17.67;5.40;;;;;;;16.49;60.45;103692.75;5063497;28;20038;-79
2023/12/17 06:00:01;;;;;;;14.07;4.97;;;;;;;16.15;62.58;103692.38;5072841;28;20024;-77
2023/12/17 06:02:26;;;;;;;10.10;4.43;;;;;;;17.17;58.19;103688.09;5063014;28;20029;-79
2023/12/17 06:04:51;;;;;;;15.53;5.77;;;;;;;16.52;60.55;103679.59;5051957;28;20506;-79
2023/12/17 06:07:17;;;;;;;13.80;6.03;;;;;;;16.63;59.68;103691.13;5055725;28;20043;-79
2023/12/17 06:09:42;;;;;;;14.03;7.30;;;;;;;16.17;61.14;103695.03;5058350;28;20044;-79
2023/12/17 06:12:08;;;;;;;15.97;7.37;;;;;;;17.37;58.08;103693.53;5053813;28;20064;-79
2023/12/17 06:14:33;;;;;;;23.53;8.73;;;;;;;16.51;60.14;103700.69;5068787;28;20086;-79
2023/12/17 06:17:02;;;;;;;23.87;10.20;;;;;;;16.36;59.99;103682.94;5051846;28;20035;-79
2023/12/17 06:19:27;;;;;;;17.17;8.10;;;;;;;16.51;59.71;103674.28;5057191;28;20033;-79
2023/12/17 06:21:52;;;;;;;23.17;9.07;;;;;;;16.92;58.58;103665.91;5048012;28;20504;-79
2023/12/17 06:24:18;;;;;;;27.40;9.17;;;;;;;16.72;58.99;103676.25;5069223;28;20033;-79
2023/12/17 06:26:43;;;;;;;21.77;9.27;;;;;;;16.75;59.19;103669.25;5068738;28;20032;-79
2023/12/17 06:29:12;;;;;;;25.73;9.67;;;;;;;17.35;57.79;103674.16;5051531;28;20033;-79
2023/12/17 06:31:40;;;;;;;25.03;10.00;;;;;;;16.94;57.64;103675.59;5050702;28;20063;-78
2023/12/17 06:34:05;;;;;;;20.53;8.77;;;;;;;17.22;57.30;103675.81;5052132;28;20056;-79
2023/12/17 06:36:31;;;;;;;22.30;9.40;;;;;;;17.42;56.11;103680.34;5052521;28;20080;-79
2023/12/17 06:38:56;;;;;;;25.53;10.07;;;;;;;16.11;59.56;103685.28;5051032;28;20053;-79
2023/12/17 06:41:22;;;;;;;23.37;9.80;;;;;;;16.90;57.75;103683.50;5050376;28;20028;-79
2023/12/17 06:43:47;;;;;;;24.73;9.40;;;;;;;17.21;56.93;103689.03;5081522;28;20186;-79
2023/12/17 06:46:16;;;;;;;27.73;9.20;;;;;;;17.51;56.38;103677.75;5070260;28;20078;-79
2023/12/17 06:48:43;;;;;;;24.20;8.87;;;;;;;16.19;60.49;103688.03;5058255;28;20114;-79
2023/12/17 06:51:09;;;;;;;24.70;9.60;;;;;;;17.50;56.71;103690.97;5050098;28;20037;-79
2023/12/17 06:53:35;;;;;;;29.67;9.97;;;;;;;17.32;56.47;103695.25;5061887;28;20055;-79
2023/12/17 06:56:00;;;;;;;15.30;8.00;;;;;;;17.13;56.30;103692.50;5066032;28;20818;-78
2023/12/17 06:58:25;;;;;;;18.87;8.20;;;;;;;17.38;55.93;103692.69;5051069;28;20102;-78
2023/12/17 07:00:51;;;;;;;23.30;8.63;;;;;;;16.75;57.52;103687.72;5044316;28;20473;-78
2023/12/17 07:03:20;;;;;;;23.40;8.17;;;;;;;17.37;56.11;103696.19;5039469;28;20056;-79
2023/12/17 07:05:45;;;;;;;23.57;8.03;;;;;;;17.28;55.88;103690.81;5049628;28;20036;-79
2023/12/17 07:08:11;;;;;;;14.93;8.20;;;;;;;16.82;56.58;103685.16;5058289;28;20073;-78
2023/12/17 07:10:36;;;;;;;20.27;8.93;;;;;;;16.78;58.18;103679.84;5052061;28;20032;-79
2023/12/17 07:13:03;;;;;;;16.30;8.13;;;;;;;16.43;59.16;103682.13;5055825;28;20476;-79
2023/12/17 07:15:29;;;;;;;15.20;7.37;;;;;;;15.34;63.56;103678.94;5062055;28;20029;-78
2023/12/17 07:17:54;;;;;;;17.43;6.53;;;;;;;16.86;57.61;103676.41;5054103;28;20038;-79
2023/12/17 07:20:19;;;;;;;17.57;6.53;;;;;;;16.69;58.56;103674.50;5069758;28;20032;-79
2023/12/17 07:22:45;;;;;;;14.60;6.33;;;;;;;17.00;57.32;103679.19;5050805;28;20029;-78
2023/12/17 07:25:10;;;;;;;14.57;6.83;;;;;;;17.52;55.40;103683.97;5056827;28;20507;-79
2023/12/17 07:27:36;;;;;;;20.10;7.23;;;;;;;16.78;57.50;103685.13;5046679;28;20025;-79
2023/12/17 07:30:01;;;;;;;11.73;7.13;;;;;;;16.61;57.83;103686.72;5070864;28;20409;-79
2023/12/17 07:32:26;;;;;;;14.17;6.37;;;;;;;16.43;58.70;103690.94;5069754;28;20530;-79
2023/12/17 07:34:52;;;;;;;14.60;6.60;;;;;;;16.02;61.08;103696.63;5068001;28;20036;-79
2023/12/17 07:37:17;;;;;;;18.70;7.20;;;;;;;16.39;58.83;103691.78;5055625;28;20137;-79
2023/12/17 07:39:43;;;;;;;15.40;7.03;;;;;;;15.71;60.76;103701.44;5059143;28;20032;-79
2023/12/17 07:42:08;;;;;;;22.57;6.57;;;;;;;16.19;60.81;103701.22;5050194;28;20035;-78
2023/12/17 07:44:33;;;;;;;17.27;6.60;;;;;;;16.59;58.35;103688.44;5055280;28;20061;-77
2023/12/17 07:47:02;;;;;;;18.13;7.37;;;;;;;17.00;56.07;103701.19;5051099;28;20064;-78
2023/12/17 07:49:27;;;;;;;19.97;7.57;;;;;;;16.48;58.88;103696.25;5045652;28;20481;-79
2023/12/17 07:51:53;;;;;;;12.33;6.53;;;;;;;16.36;57.64;103697.03;5049416;28;20032;-79
2023/12/17 07:54:18;;;;;;;16.57;7.47;;;;;;;16.26;59.35;103696.00;5051056;28;20498;-79
2023/12/17 07:56:44;;;;;;;17.50;6.93;;;;;;;15.87;59.54;103701.72;5049251;28;20055;-79
2023/12/17 07:59:09;;;;;;;14.60;6.93;;;;;;;15.60;59.56;103700.41;5061181;28;20032;-79
2023/12/17 08:01:35;;;;;;;22.70;7.97;;;;;;;15.53;61.24;103701.19;5064276;28;20039;-79
2023/12/17 08:04:00;;;;;;;18.60;6.90;;;;;;;15.56;61.38;103695.97;5074036;28;20376;-79
2023/12/17 08:06:26;;;;;;;17.60;6.67;;;;;;;15.39;61.44;103699.22;5055871;28;20446;-79
2023/12/17 08:08:52;;;;;;;16.30;7.30;;;;;;;15.37;59.91;103700.97;5055974;28;20036;-79
2023/12/17 08:11:18;;;;;;;17.87;7.47;;;;;;;16.96;56.44;103705.56;5066702;28;20476;-79
2023/12/17 08:13:44;;;;;;;15.17;7.47;;;;;;;15.90;58.85;103701.75;5056033;28;20098;-79
2023/12/17 08:16:09;;;;;;;16.37;7.00;;;;;;;15.75;60.58;103713.81;5051468;28;20036;-79
2023/12/17 08:18:35;;;;;;;13.80;6.53;;;;;;;15.83;58.99;103719.22;5052543;28;20037;-79
2023/12/17 08:21:02;;;;;;;21.17;8.07;;;;;;;15.11;61.78;103721.59;5056094;28;20029;-79
2023/12/17 08:23:27;;;;;;;14.60;6.93;;;;;;;15.61;61.06;103721.53;5048771;28;20040;-79
2023/12/17 08:25:53;;;;;;;16.13;7.43;;;;;;;15.18;61.28;103725.22;5040417;28;20034;-79
2023/12/17 08:28:21;;;;;;;17.47;7.00;;;;;;;14.98;63.30;103728.41;5044074;28;20481;-79
2023/12/17 08:30:47;;;;;;;19.13;6.43;;;;;;;15.30;60.96;103717.53;5065648;28;20029;-79
2023/12/17 08:33:13;;;;;;;15.97;7.47;;;;;;;14.93;62.48;103722.16;5050716;28;20040;-79
2023/12/17 08:35:38;;;;;;;16.60;7.13;;;;;;;15.17;62.82;103726.13;5042407;28;20397;-79
2023/12/17 08:38:08;;;;;;;17.60;7.37;;;;;;;15.24;60.71;103714.81;5050078;28;20427;-79
2023/12/17 08:40:37;;;;;;;18.47;7.33;;;;;;;15.34;60.26;103718.47;5061181;28;20441;-79
2023/12/17 08:43:03;;;;;;;18.13;8.17;;;;;;;14.84;61.56;103714.13;5053447;28;20115;-79
2023/12/17 08:45:29;;;;;;;21.30;8.47;;;;;;;15.30;60.84;103714.88;5057618;28;20104;-79
2023/12/17 08:47:54;;;;;;;22.23;9.00;;;;;;;15.23;61.13;103726.19;5049173;28;20132;-79
2023/12/17 08:50:20;;;;;;;16.13;7.47;;;;;;;15.13;61.05;103716.38;5064080;28;20132;-80
2023/12/17 08:52:45;;;;;;;22.73;8.83;;;;;;;15.75;58.63;103713.81;5069632;28;20036;-80
2023/12/17 08:55:11;;;;;;;15.43;7.17;;;;;;;15.15;61.21;103714.66;5057135;28;20115;-80
2023/12/17 08:57:37;;;;;;;17.33;8.37;;;;;;;15.50;60.76;103707.31;5054317;28;20025;-80
2023/12/17 09:00:04;;;;;;;16.57;7.40;;;;;;;15.86;58.68;103713.13;5050576;28;20020;-79
2023/12/17 09:02:30;;;;;;;24.30;9.23;;;;;;;16.58;56.64;103699.88;5053791;28;20396;-80
2023/12/17 09:04:57;;;;;;;19.23;7.87;;;;;;;15.01;61.05;103711.78;5053832;28;20121;-79
2023/12/17 09:07:23;;;;;;;26.00;7.97;;;;;;;14.60;62.84;103715.41;5051719;28;20033;-80
2023/12/17 09:09:48;;;;;;;24.17;9.03;;;;;;;15.48;59.38;103709.00;5060394;28;20032;-80
2023/12/17 09:12:13;;;;;;;26.47;8.70;;;;;;;15.26;59.13;103715.69;5058255;28;20029;-80
2023/12/17 09:14:39;;;;;;;25.70;10.20;;;;;;;16.40;56.53;103714.69;5057252;28;20036;-79
2023/12/17 09:17:04;;;;;;;22.07;8.17;;;;;;;15.36;59.27;103720.28;5048399;28;20037;-79
2023/12/17 09:19:29;;;;;;;25.80;8.63;;;;;;;14.90;60.67;103722.13;5042784;28;20020;-80
2023/12/17 09:21:55;;;;;;;25.20;8.63;;;;;;;14.86;59.86;103722.94;5072891;28;20472;-80
2023/12/17 09:24:20;;;;;;;22.47;9.17;;;;;;;15.01;60.12;103717.06;5061546;28;20025;-80
2023/12/17 09:26:46;;;;;;;22.97;9.87;;;;;;;14.99;60.32;103719.66;5050147;28;20060;-80
2023/12/17 09:29:11;;;;;;;23.90;9.80;;;;;;;14.76;60.78;103733.28;5054469;28;20029;-80
2023/12/17 09:31:36;;;;;;;25.67;9.83;;;;;;;14.27;63.00;103737.56;5074035;28;20111;-79
2023/12/17 09:34:02;;;;;;;21.80;8.60;;;;;;;14.72;60.23;103726.19;5072285;28;20035;-79
2023/12/17 09:36:28;;;;;;;26.40;10.03;;;;;;;16.09;57.06;103730.13;5053703;28;20025;-80
2023/12/17 09:38:53;;;;;;;24.00;9.10;;;;;;;15.38;57.47;103728.19;5049101;28;20396;-80
2023/12/17 09:41:19;;;;;;;23.07;9.10;;;;;;;15.89;56.88;103731.63;5057220;28;20480;-79
2023/12/17 09:43:45;;;;;;;20.60;9.60;;;;;;;15.99;56.57;103732.63;5052002;28;20102;-80
2023/12/17 09:46:11;;;;;;;26.57;9.87;;;;;;;15.75;57.68;103737.53;5052125;28;20040;-79
2023/12/17 09:48:36;;;;;;;20.60;9.53;;;;;;;15.26;57.79;103750.88;5049758;28;20029;-80
2023/12/17 09:51:02;;;;;;;16.87;8.77;;;;;;;14.79;59.22;103752.66;5046466;28;20017;-79
2023/12/17 09:53:29;;;;;;;22.43;8.97;;;;;;;15.37;58.50;103737.88;5052486;28;20047;-79
2023/12/17 09:55:55;;;;;;;19.70;9.83;;;;;;;15.03;59.67;103736.38;5065419;28;20036;-79
2023/12/17 09:58:20;;;;;;;21.30;9.60;;;;;;;15.64;58.17;103733.88;5065002;28;20027;-79
2023/12/17 10:00:46;;;;;;;19.60;9.73;;;;;;;15.61;57.40;103729.44;5063864;28;20020;-80
2023/12/17 10:03:14;;;;;;;25.77;10.20;;;;;;;15.21;57.72;103735.84;5071010;28;20480;-79
2023/12/17 10:05:40;;;;;;;26.47;10.47;;;;;;;15.94;55.92;103730.81;5071909;28;20388;-79
2023/12/17 10:08:05;;;;;;;28.83;10.37;;;;;;;15.62;56.58;103732.97;5067414;28;20017;-79
2023/12/17 10:10:31;;;;;;;28.43;10.57;;;;;;;15.14;58.82;103726.03;5059379;28;20074;-79
2023/12/17 10:12:56;;;;;;;21.97;9.47;;;;;;;14.97;58.91;103715.22;5060711;28;20024;-80
2023/12/17 10:15:22;;;;;;;22.00;10.73;;;;;;;15.26;58.73;103723.59;5056431;28;20478;-79
2023/12/17 10:17:47;;;;;;;28.83;11.27;;;;;;;15.75;56.87;103708.53;5071771;28;20436;-79
2023/12/17 10:20:19;;;;;;;28.67;11.13;;;;;;;16.10;55.84;103704.63;5048679;28;20064;-79
2023/12/17 10:22:58;;;;;;;31.55;10.50;;;;;;;15.27;58.08;103709.56;5044308;28;20029;-79
2023/12/17 10:25:24;;;;;;;25.10;11.77;;;;;;;14.35;61.40;103714.91;5057435;28;20035;-79
2023/12/17 10:27:58;;;;;;;22.83;10.37;;;;;;;15.36;58.62;103704.47;5071310;28;20020;-79
2023/12/17 10:30:29;;;;;;;31.67;11.20;;;;;;;15.55;56.23;103710.00;5056053;28;20043;-79
2023/12/17 10:32:56;;;;;;;27.13;10.27;;;;;;;15.58;56.98;103700.41;5071590;28;20067;-80
2023/12/17 10:35:28;;;;;;;25.30;11.00;;;;;;;15.83;56.36;103699.91;5069755;28;20024;-80
2023/12/17 10:38:01;;;;;;;30.63;10.00;;;;;;;15.10;58.19;103690.88;5071025;28;20105;-80
2023/12/17 10:40:28;;;;;;;21.00;10.17;;;;;;;15.12;58.55;103690.91;5068851;28;20369;-79
2023/12/17 10:42:56;;;;;;;28.23;11.13;;;;;;;15.10;58.65;103677.69;5072405;28;20383;-80
2023/12/17 10:45:22;;;;;;;24.47;11.77;;;;;;;15.38;57.37;103670.22;5069190;28;20048;-79
2023/12/17 10:47:56;;;;;;;24.37;10.83;;;;;;;16.55;54.59;103663.75;5047709;28;20025;-80
2023/12/17 10:50:23;;;;;;;26.53;10.47;;;;;;;15.96;55.80;103664.88;5032338;28;20057;-80
2023/12/17 10:52:49;;;;;;;24.67;11.57;;;;;;;16.18;54.90;103659.88;5050875;28;20060;-80
2023/12/17 10:55:16;;;;;;;23.97;10.40;;;;;;;15.71;56.66;103664.53;5050796;28;20029;-80
2023/12/17 10:57:47;;;;;;;27.53;11.40;;;;;;;15.01;58.66;103665.25;5066894;28;20025;-80
2023/12/17 11:00:15;;;;;;;25.17;10.77;;;;;;;15.41;57.72;103657.97;5049848;28;20029;-80
2023/12/17 11:02:42;;;;;;;20.50;9.83;;;;;;;15.08;58.47;103661.88;5070169;28;20037;-80
2023/12/17 11:05:07;;;;;;;24.43;10.10;;;;;;;14.90;59.26;103640.50;5071052;28;20047;-81
2023/12/17 11:07:33;;;;;;;22.60;8.90;;;;;;;14.87;59.50;103641.31;5056656;28;20543;-80
2023/12/17 11:10:01;;;;;;;17.70;7.97;;;;;;;14.86;58.57;103641.28;5051916;28;20367;-80
2023/12/17 11:12:27;;;;;;;25.03;10.90;;;;;;;15.68;56.62;103647.81;5064468;28;20070;-80